createdAt,value
2022-12-14T00:02:20.589Z,20.90
2022-12-14T00:04:46.940Z,20.89
2022-12-14T00:07:13.259Z,20.90
2022-12-14T00:09:39.639Z,20.89
2022-12-14T00:12:06.310Z,20.89
2022-12-14T00:14:32.636Z,20.89
2022-12-14T00:16:58.949Z,20.91
2022-12-14T00:19:25.270Z,20.90
2022-12-14T00:21:51.602Z,20.90
2022-12-14T00:24:17.953Z,20.88
2022-12-14T00:26:44.273Z,20.86
2022-12-14T00:29:17.615Z,20.85
2022-12-14T00:31:43.954Z,20.86
2022-12-14T00:34:15.239Z,20.85
2022-12-14T00:36:44.257Z,20.84
2022-12-14T00:39:13.151Z,20.86
2022-12-14T00:41:39.480Z,20.86
2022-12-14T00:44:05.805Z,20.86
2022-12-14T00:46:32.172Z,20.86
2022-12-14T00:48:58.666Z,20.85
2022-12-14T00:51:24.979Z,20.83
2022-12-14T00:53:51.296Z,20.84
2022-12-14T00:56:17.614Z,20.82
2022-12-14T00:58:44.423Z,20.81
2022-12-14T01:01:14.866Z,20.81
2022-12-14T01:03:41.428Z,20.82
2022-12-14T01:06:12.968Z,20.82
2022-12-14T01:08:39.278Z,20.82
2022-12-14T01:11:06.403Z,20.82
2022-12-14T01:13:32.768Z,20.82
2022-12-14T01:16:04.427Z,20.81
2022-12-14T01:18:32.993Z,20.80
2022-12-14T01:21:07.622Z,20.79
2022-12-14T01:23:33.968Z,20.79
2022-12-14T01:26:00.310Z,20.78
2022-12-14T01:28:26.638Z,20.78
2022-12-14T01:30:53.117Z,20.77
2022-12-14T01:33:19.438Z,20.78
2022-12-14T01:35:45.782Z,20.78
2022-12-14T01:38:12.092Z,20.78
2022-12-14T01:40:38.941Z,20.77
2022-12-14T01:43:10.377Z,20.76
2022-12-14T01:45:36.705Z,20.77
2022-12-14T01:48:03.022Z,20.74
2022-12-14T01:50:30.340Z,20.72
2022-12-14T01:52:58.141Z,20.73
2022-12-14T01:55:34.170Z,20.74
2022-12-14T01:58:05.623Z,20.73
2022-12-14T02:00:31.961Z,20.75
2022-12-14T02:02:59.881Z,20.75
2022-12-14T02:05:26.323Z,20.75
2022-12-14T02:07:52.919Z,20.75
2022-12-14T02:10:19.243Z,20.73
2022-12-14T02:12:47.086Z,20.70
2022-12-14T02:15:13.458Z,20.70
2022-12-14T02:17:41.278Z,20.70
2022-12-14T02:20:07.781Z,20.69
2022-12-14T02:22:42.194Z,20.70
2022-12-14T02:25:15.632Z,20.69
2022-12-14T02:27:47.850Z,20.69
2022-12-14T02:30:18.372Z,20.70
2022-12-14T02:33:03.316Z,20.68
2022-12-14T02:35:35.233Z,20.67
2022-12-14T02:38:06.458Z,20.67
2022-12-14T02:40:48.627Z,20.64
2022-12-14T02:43:18.646Z,20.63
2022-12-14T02:45:53.947Z,20.63
2022-12-14T02:48:24.644Z,20.63
2022-12-14T02:51:02.919Z,20.63
2022-12-14T02:53:31.343Z,20.64
2022-12-14T02:56:01.766Z,20.64
2022-12-14T02:58:38.382Z,20.66
2022-12-14T03:01:04.832Z,20.65
2022-12-14T03:03:31.416Z,20.64
2022-12-14T03:06:26.991Z,20.62
2022-12-14T03:08:54.241Z,20.61
2022-12-14T03:11:21.242Z,20.61
2022-12-14T03:13:53.414Z,20.60
2022-12-14T03:16:20.863Z,20.60
2022-12-14T03:18:50.035Z,20.60
2022-12-14T03:21:16.917Z,20.60
2022-12-14T03:23:43.310Z,20.61
2022-12-14T03:26:13.952Z,20.61
2022-12-14T03:28:43.156Z,20.60
2022-12-14T03:31:10.930Z,20.59
2022-12-14T03:33:37.272Z,20.59
2022-12-14T03:36:04.953Z,20.58
2022-12-14T03:38:33.198Z,20.57
2022-12-14T03:41:05.561Z,20.56
2022-12-14T03:43:35.550Z,20.56
2022-12-14T03:46:04.283Z,20.55
2022-12-14T03:48:41.004Z,20.56
2022-12-14T03:51:14.285Z,20.57
2022-12-14T03:53:56.767Z,20.57
2022-12-14T03:56:33.915Z,20.59
2022-12-14T03:59:07.719Z,20.60
2022-12-14T04:02:00.332Z,20.60
2022-12-14T04:04:42.009Z,20.60
2022-12-14T04:07:10.431Z,20.59
2022-12-14T04:09:39.690Z,20.61
2022-12-14T04:12:24.681Z,20.60
2022-12-14T04:15:14.197Z,20.58
2022-12-14T04:17:59.240Z,20.57
2022-12-14T04:20:26.951Z,20.56
2022-12-14T04:22:55.331Z,20.54
2022-12-14T04:25:45.211Z,20.53
2022-12-14T04:28:55.950Z,20.52
2022-12-14T04:31:23.160Z,20.51
2022-12-14T04:33:55.759Z,20.49
2022-12-14T04:36:27.518Z,20.50
2022-12-14T04:38:55.558Z,20.51
2022-12-14T04:41:23.143Z,20.50
2022-12-14T04:43:49.475Z,20.52
2022-12-14T04:46:16.801Z,20.54
2022-12-14T04:48:45.107Z,20.54
2022-12-14T04:51:13.417Z,20.56
2022-12-14T04:53:39.728Z,20.56
2022-12-14T04:56:08.249Z,20.56
2022-12-14T04:58:34.581Z,20.56
2022-12-14T05:01:10.153Z,20.54
2022-12-14T05:03:37.816Z,20.54
2022-12-14T05:06:07.533Z,20.53
2022-12-14T05:08:40.837Z,20.53
2022-12-14T05:11:31.744Z,20.52
2022-12-14T05:13:55.694Z,20.50
2022-12-14T05:16:22.454Z,20.48
2022-12-14T05:18:48.858Z,20.47
2022-12-14T05:21:33.971Z,20.47
2022-12-14T05:24:00.736Z,20.47
2022-12-14T05:26:32.839Z,20.46
2022-12-14T05:28:59.294Z,20.45
2022-12-14T05:31:25.630Z,20.44
2022-12-14T05:33:54.601Z,20.45
2022-12-14T05:36:20.945Z,20.48
2022-12-14T05:38:47.271Z,20.48
2022-12-14T05:41:13.757Z,20.49
2022-12-14T05:43:45.709Z,20.49
2022-12-14T05:46:15.444Z,20.50
2022-12-14T05:48:46.044Z,20.51
2022-12-14T05:51:18.097Z,20.49
2022-12-14T05:53:44.645Z,20.50
2022-12-14T05:56:11.017Z,20.48
2022-12-14T05:58:37.345Z,20.47
2022-12-14T06:01:04.348Z,20.46
2022-12-14T06:03:31.016Z,20.46
2022-12-14T06:06:01.900Z,20.44
2022-12-14T06:08:30.549Z,20.44
2022-12-14T06:11:01.937Z,20.43
2022-12-14T06:13:28.610Z,20.42
2022-12-14T06:15:55.304Z,20.41
2022-12-14T06:18:24.120Z,20.42
2022-12-14T06:20:50.436Z,20.43
2022-12-14T06:23:16.744Z,20.40
2022-12-14T06:25:43.091Z,20.42
2022-12-14T06:28:09.403Z,20.44
2022-12-14T06:30:35.860Z,20.18
2022-12-14T06:33:02.266Z,14.13
2022-12-14T06:35:28.585Z,17.25
2022-12-14T06:37:54.906Z,19.18
2022-12-14T06:40:21.224Z,19.90
2022-12-14T06:42:47.990Z,20.25
2022-12-14T06:45:14.977Z,20.33
2022-12-14T06:47:41.313Z,20.43
2022-12-14T06:50:07.718Z,20.42
2022-12-14T06:52:34.610Z,20.35
2022-12-14T06:55:00.945Z,20.33
2022-12-14T06:57:27.300Z,20.32
2022-12-14T06:59:53.631Z,20.35
2022-12-14T07:02:20.200Z,20.35
2022-12-14T07:04:46.725Z,20.33
2022-12-14T07:07:13.059Z,20.27
2022-12-14T07:09:42.016Z,20.36
2022-12-14T07:12:11.336Z,20.66
2022-12-14T07:14:37.685Z,20.82
2022-12-14T07:17:04.001Z,20.90
2022-12-14T07:19:30.314Z,20.96
2022-12-14T07:21:56.672Z,20.96
2022-12-14T07:24:23.048Z,21.00
2022-12-14T07:26:49.429Z,20.97
2022-12-14T07:29:16.760Z,20.92
2022-12-14T07:31:43.100Z,20.90
2022-12-14T07:34:10.817Z,20.88
2022-12-14T07:36:37.129Z,20.87
2022-12-14T07:39:03.463Z,20.86
2022-12-14T07:41:30.999Z,20.86
2022-12-14T07:43:57.834Z,20.84
2022-12-14T07:46:25.004Z,20.86
2022-12-14T07:48:51.957Z,20.88
2022-12-14T07:51:19.085Z,20.90
2022-12-14T07:53:45.424Z,20.82
2022-12-14T07:56:15.405Z,20.87
2022-12-14T07:58:44.494Z,20.83
2022-12-14T08:01:14.537Z,20.84
2022-12-14T08:03:41.805Z,20.82
2022-12-14T08:06:08.239Z,20.82
2022-12-14T08:08:34.547Z,20.84
2022-12-14T08:11:00.995Z,20.80
2022-12-14T08:13:32.766Z,20.82
2022-12-14T08:16:03.255Z,20.76
2022-12-14T08:18:29.818Z,20.79
2022-12-14T08:20:56.145Z,20.74
2022-12-14T08:23:22.465Z,20.83
2022-12-14T08:25:57.641Z,20.89
2022-12-14T08:28:27.239Z,21.09
2022-12-14T08:30:53.606Z,21.19
2022-12-14T08:33:22.540Z,21.10
2022-12-14T08:35:51.792Z,21.04
2022-12-14T08:38:18.127Z,21.19
2022-12-14T08:40:44.444Z,21.25
2022-12-14T08:43:10.777Z,21.31
2022-12-14T08:45:37.097Z,21.16
2022-12-14T08:48:03.435Z,20.97
2022-12-14T08:50:29.750Z,20.84
2022-12-14T08:52:59.052Z,20.81
2022-12-14T08:55:29.098Z,20.82
2022-12-14T08:57:56.689Z,20.81
2022-12-14T09:00:23.068Z,20.78
2022-12-14T09:02:50.227Z,20.75
2022-12-14T09:05:16.970Z,20.77
2022-12-14T09:07:43.328Z,20.77
2022-12-14T09:10:09.701Z,20.69
2022-12-14T09:12:36.204Z,20.84
2022-12-14T09:15:08.649Z,20.82
2022-12-14T09:17:43.764Z,20.56
2022-12-14T09:20:14.115Z,20.73
2022-12-14T09:22:40.452Z,20.46
2022-12-14T09:25:06.825Z,20.51
2022-12-14T09:27:33.663Z,20.91
2022-12-14T09:29:59.992Z,21.11
2022-12-14T09:32:28.123Z,21.15
2022-12-14T09:34:54.432Z,21.14
2022-12-14T09:37:20.759Z,21.20
2022-12-14T09:39:47.174Z,21.20
2022-12-14T09:42:33.673Z,21.20
2022-12-14T09:45:04.525Z,21.28
2022-12-14T09:47:32.496Z,21.29
2022-12-14T09:50:00.699Z,21.31
2022-12-14T09:52:46.370Z,21.29
2022-12-14T09:55:17.398Z,21.21
2022-12-14T09:57:44.534Z,21.30
2022-12-14T10:00:18.235Z,21.38
2022-12-14T10:03:10.032Z,21.47
2022-12-14T10:05:59.535Z,21.53
2022-12-14T10:08:26.795Z,21.54
2022-12-14T10:10:58.248Z,21.53
2022-12-14T10:13:24.614Z,21.52
2022-12-14T10:16:09.754Z,21.52
2022-12-14T10:18:58.819Z,21.53
2022-12-14T10:21:26.532Z,21.47
2022-12-14T10:23:53.279Z,21.46
2022-12-14T10:26:21.279Z,21.46
2022-12-14T10:28:48.467Z,21.50
2022-12-14T10:31:16.945Z,21.52
2022-12-14T10:33:44.065Z,21.50
2022-12-14T10:36:30.060Z,21.49
2022-12-14T10:38:58.277Z,21.51
2022-12-14T10:41:30.639Z,21.56
2022-12-14T10:44:03.333Z,19.71
2022-12-14T10:46:42.536Z,18.73
2022-12-14T10:49:11.814Z,20.32
2022-12-14T10:51:46.846Z,20.73
2022-12-14T10:54:34.898Z,20.95
2022-12-14T10:57:01.324Z,21.13
2022-12-14T10:59:32.215Z,20.62
2022-12-14T11:02:11.069Z,20.90
2022-12-14T11:04:39.040Z,20.88
2022-12-14T11:07:11.843Z,20.91
2022-12-14T11:09:38.295Z,20.89
2022-12-14T11:12:08.803Z,20.85
2022-12-14T11:14:38.269Z,20.84
2022-12-14T11:17:05.427Z,20.84
2022-12-14T11:19:31.815Z,20.85
2022-12-14T11:22:04.833Z,20.09
2022-12-14T11:24:31.367Z,19.88
2022-12-14T11:27:01.353Z,20.24
2022-12-14T11:29:34.465Z,20.51
2022-12-14T11:32:00.873Z,20.62
2022-12-14T11:34:31.499Z,20.72
2022-12-14T11:37:10.453Z,20.70
2022-12-14T11:39:36.796Z,20.66
2022-12-14T11:42:04.266Z,20.61
2022-12-14T11:44:36.865Z,20.77
2022-12-14T11:47:08.367Z,20.76
2022-12-14T11:49:37.642Z,20.73
2022-12-14T11:52:14.070Z,20.88
2022-12-14T11:54:41.087Z,20.91
2022-12-14T11:57:08.425Z,20.92
2022-12-14T11:59:53.891Z,20.77
2022-12-14T12:02:24.933Z,20.80
2022-12-14T12:04:55.705Z,20.93
2022-12-14T12:07:24.105Z,20.90
2022-12-14T12:09:50.467Z,20.96
2022-12-14T12:12:17.420Z,21.16
2022-12-14T12:14:43.753Z,21.12
2022-12-14T12:17:19.069Z,21.05
2022-12-14T12:19:45.389Z,21.00
2022-12-14T12:22:11.748Z,20.71
2022-12-14T12:25:08.266Z,20.81
2022-12-14T12:27:30.055Z,21.01
2022-12-14T12:30:07.036Z,21.05
2022-12-14T12:32:34.618Z,20.98
2022-12-14T12:35:11.286Z,20.99
2022-12-14T12:37:41.194Z,21.09
2022-12-14T12:40:16.207Z,21.15
2022-12-14T12:42:44.940Z,21.06
2022-12-14T12:45:16.507Z,21.05
2022-12-14T12:47:48.334Z,21.09
2022-12-14T12:50:19.138Z,21.09
2022-12-14T12:52:48.709Z,21.02
2022-12-14T12:55:18.412Z,21.05
2022-12-14T12:57:45.845Z,21.07
2022-12-14T13:00:22.124Z,21.17
2022-12-14T13:02:49.981Z,21.22
2022-12-14T13:08:11.769Z,21.30
2022-12-14T13:10:50.508Z,21.40
2022-12-14T13:13:30.072Z,20.43
2022-12-14T13:16:03.267Z,20.69
2022-12-14T13:19:12.870Z,21.05
2022-12-14T13:21:49.786Z,21.18
2022-12-14T13:24:17.562Z,21.32
2022-12-14T13:26:59.329Z,21.39
2022-12-14T13:29:55.042Z,21.27
2022-12-14T13:32:29.867Z,21.25
2022-12-14T13:35:03.162Z,21.26
2022-12-14T13:37:48.428Z,21.25
2022-12-14T13:40:14.675Z,21.24
2022-12-14T13:42:44.454Z,21.27
2022-12-14T13:45:20.385Z,20.32
2022-12-14T13:47:48.604Z,20.49
2022-12-14T13:50:38.408Z,20.77
2022-12-14T13:53:08.184Z,20.15
2022-12-14T13:55:39.942Z,20.21
2022-12-14T13:58:25.221Z,20.59
2022-12-14T14:00:52.787Z,20.75
2022-12-14T14:03:34.830Z,21.01
2022-12-14T14:06:08.094Z,21.26
2022-12-14T14:08:41.479Z,21.43
2022-12-14T14:11:39.703Z,21.51
2022-12-14T14:14:23.031Z,21.60
2022-12-14T14:16:56.334Z,21.09
2022-12-14T14:19:23.647Z,21.17
2022-12-14T14:25:12.770Z,21.59
2022-12-14T14:27:39.644Z,21.51
2022-12-14T14:30:28.835Z,21.48
2022-12-14T14:33:07.547Z,21.49
2022-12-14T14:35:40.185Z,21.47
2022-12-14T14:38:26.265Z,20.92
2022-12-14T14:43:49.549Z,20.77
2022-12-14T14:46:22.203Z,21.03
2022-12-14T14:48:53.121Z,21.11
2022-12-14T14:51:22.866Z,21.27
2022-12-14T14:53:50.368Z,21.31
2022-12-14T14:56:32.665Z,21.29
2022-12-14T14:59:37.102Z,21.28
2022-12-14T15:02:04.015Z,21.32
2022-12-14T15:04:49.452Z,21.33
2022-12-14T15:07:23.400Z,21.29
2022-12-14T15:09:54.595Z,21.34
2022-12-14T15:12:32.927Z,21.41
2022-12-14T15:15:00.699Z,21.43
2022-12-14T15:17:27.540Z,21.43
2022-12-14T15:19:54.434Z,21.54
2022-12-14T15:22:24.098Z,21.53
2022-12-14T15:24:51.113Z,21.59
2022-12-14T15:27:24.857Z,21.65
2022-12-14T15:29:51.351Z,21.60
2022-12-14T15:32:18.353Z,21.60
2022-12-14T15:35:03.412Z,21.60
2022-12-14T15:37:37.524Z,21.58
2022-12-14T15:40:05.494Z,21.64
2022-12-14T15:42:34.844Z,21.67
2022-12-14T15:45:02.428Z,21.57
2022-12-14T15:47:31.264Z,21.30
2022-12-14T15:50:15.896Z,21.31
2022-12-14T15:52:42.257Z,21.38
2022-12-14T15:55:19.912Z,21.43
2022-12-14T15:57:46.230Z,21.43
2022-12-14T16:00:13.482Z,21.45
2022-12-14T16:02:43.877Z,21.36
2022-12-14T16:05:14.053Z,21.34
2022-12-14T16:07:40.734Z,21.42
2022-12-14T16:10:08.804Z,21.48
2022-12-14T16:12:44.460Z,21.54
2022-12-14T16:15:17.648Z,21.60
2022-12-14T16:17:44.713Z,21.57
2022-12-14T16:20:19.257Z,21.52
2022-12-14T16:23:01.795Z,21.48
2022-12-14T16:25:28.673Z,21.34
2022-12-14T16:27:54.994Z,21.42
2022-12-14T16:30:24.302Z,21.33
2022-12-14T16:33:03.539Z,21.43
2022-12-14T16:35:29.904Z,21.51
2022-12-14T16:38:04.085Z,21.55
2022-12-14T16:40:32.604Z,21.43
2022-12-14T16:42:58.958Z,21.25
2022-12-14T16:45:43.610Z,21.41
2022-12-14T16:48:17.013Z,21.54
2022-12-14T16:51:02.928Z,21.57
2022-12-14T16:53:30.293Z,21.46
2022-12-14T16:56:01.009Z,21.24
2022-12-14T16:58:27.383Z,21.25
2022-12-14T17:00:57.856Z,21.32
2022-12-14T17:03:24.359Z,21.43
2022-12-14T17:05:54.467Z,21.46
2022-12-14T17:08:20.864Z,21.60
2022-12-14T17:10:47.193Z,21.64
2022-12-14T17:13:13.548Z,21.44
2022-12-14T17:15:52.275Z,21.24
2022-12-14T17:18:20.221Z,21.12
2022-12-14T17:20:46.735Z,20.92
2022-12-14T17:23:14.814Z,21.08
2022-12-14T17:25:46.175Z,20.97
2022-12-14T17:28:17.098Z,21.06
2022-12-14T17:30:43.488Z,21.05
2022-12-14T17:33:18.913Z,20.98
2022-12-14T17:35:45.258Z,20.93
2022-12-14T17:38:14.782Z,17.21
2022-12-14T17:40:41.110Z,17.98
2022-12-14T17:43:08.597Z,17.94
2022-12-14T17:45:34.920Z,19.04
2022-12-14T17:48:01.232Z,19.82
2022-12-14T17:50:27.536Z,20.13
2022-12-14T17:52:53.874Z,20.28
2022-12-14T17:55:21.688Z,20.39
2022-12-14T17:57:48.002Z,20.47
2022-12-14T18:00:40.410Z,20.51
2022-12-14T18:03:06.923Z,20.55
2022-12-14T18:05:43.604Z,20.57
2022-12-14T18:08:14.554Z,20.58
2022-12-14T18:10:41.556Z,20.58
2022-12-14T18:13:07.878Z,20.58
2022-12-14T18:15:35.396Z,20.57
2022-12-14T18:18:01.751Z,20.57
2022-12-14T18:20:28.080Z,20.55
2022-12-14T18:22:54.380Z,20.51
2022-12-14T18:25:28.586Z,20.53
2022-12-14T18:27:54.902Z,20.55
2022-12-14T18:30:24.072Z,20.56
2022-12-14T18:32:56.608Z,20.56
2022-12-14T18:35:24.108Z,20.58
2022-12-14T18:37:50.582Z,20.57
2022-12-14T18:40:18.062Z,20.58
2022-12-14T18:42:44.734Z,20.57
2022-12-14T18:45:18.571Z,20.57
2022-12-14T18:47:45.033Z,20.55
2022-12-14T18:50:11.861Z,20.55
2022-12-14T18:52:38.227Z,20.53
2022-12-14T18:55:05.707Z,20.53
2022-12-14T18:57:32.080Z,20.54
2022-12-14T18:59:58.403Z,20.55
2022-12-14T19:02:24.830Z,20.57
2022-12-14T19:04:51.316Z,20.59
2022-12-14T19:07:17.624Z,20.55
2022-12-14T19:09:43.939Z,20.53
2022-12-14T19:12:10.975Z,20.57
2022-12-14T19:14:37.350Z,20.61
2022-12-14T19:17:03.696Z,20.64
2022-12-14T19:19:36.727Z,20.64
2022-12-14T19:22:07.941Z,20.56
2022-12-14T19:24:34.769Z,20.57
2022-12-14T19:27:01.120Z,20.61
2022-12-14T19:29:27.453Z,20.60
2022-12-14T19:31:54.573Z,20.53
2022-12-14T19:34:21.936Z,20.82
2022-12-14T19:36:51.240Z,20.90
2022-12-14T19:39:17.596Z,20.83
2022-12-14T19:41:43.911Z,20.70
2022-12-14T19:44:10.234Z,20.70
2022-12-14T19:46:36.981Z,21.06
2022-12-14T19:49:03.411Z,21.17
2022-12-14T19:51:29.732Z,21.24
2022-12-14T19:53:56.287Z,21.26
2022-12-14T19:56:23.086Z,21.33
2022-12-14T19:58:49.410Z,21.34
2022-12-14T20:01:16.275Z,21.30
2022-12-14T20:03:42.797Z,21.32
2022-12-14T20:06:09.234Z,21.34
2022-12-14T20:08:35.546Z,21.28
2022-12-14T20:11:17.394Z,21.31
2022-12-14T20:13:43.746Z,21.53
2022-12-14T20:16:14.054Z,21.61
2022-12-14T20:18:43.177Z,21.61
2022-12-14T20:21:09.647Z,21.63
2022-12-14T20:23:38.835Z,21.36
2022-12-14T20:26:06.198Z,20.91
2022-12-14T20:28:32.994Z,21.04
2022-12-14T20:31:00.538Z,20.12
2022-12-14T20:33:30.619Z,18.28
2022-12-14T20:35:57.909Z,19.45
2022-12-14T20:38:24.410Z,20.04
2022-12-14T20:40:50.778Z,20.33
2022-12-14T20:43:19.807Z,20.47
2022-12-14T20:45:46.537Z,20.56
2022-12-14T20:48:15.867Z,20.60
2022-12-14T20:50:42.453Z,20.62
2022-12-14T20:53:08.760Z,20.62
2022-12-14T20:55:35.140Z,20.63
2022-12-14T20:58:01.465Z,20.61
2022-12-14T21:00:27.814Z,20.60
2022-12-14T21:02:54.216Z,20.59
2022-12-14T21:05:20.636Z,20.56
2022-12-14T21:07:46.954Z,20.51
2022-12-14T21:10:13.297Z,20.48
2022-12-14T21:12:39.624Z,20.47
2022-12-14T21:15:06.059Z,20.45
2022-12-14T21:17:33.595Z,20.43
2022-12-14T21:19:59.944Z,20.41
2022-12-14T21:22:26.507Z,20.40
2022-12-14T21:25:08.276Z,20.40
2022-12-14T21:27:35.246Z,20.41
2022-12-14T21:30:01.627Z,20.41
2022-12-14T21:32:28.130Z,20.42
2022-12-14T21:34:54.471Z,20.42
2022-12-14T21:37:20.879Z,20.41
2022-12-14T21:39:52.361Z,20.41
2022-12-14T21:42:21.866Z,20.38
2022-12-14T21:44:48.799Z,20.37
2022-12-14T21:47:16.084Z,20.35
2022-12-14T21:49:42.621Z,20.31
2022-12-14T21:52:09.306Z,20.29
2022-12-14T21:54:35.634Z,20.23
2022-12-14T21:57:20.432Z,20.22
2022-12-14T21:59:46.751Z,20.22
2022-12-14T22:02:13.157Z,20.22
2022-12-14T22:04:40.196Z,20.21
2022-12-14T22:07:06.553Z,20.20
2022-12-14T22:09:32.858Z,20.20
2022-12-14T22:11:59.200Z,20.22
2022-12-14T22:14:25.519Z,20.23
2022-12-14T22:16:51.908Z,20.21
2022-12-14T22:19:22.047Z,20.20
2022-12-14T22:21:48.385Z,20.18
2022-12-14T22:24:15.527Z,20.17
2022-12-14T22:26:42.334Z,20.15
2022-12-14T22:29:08.684Z,20.14
2022-12-14T22:31:35.291Z,20.13
2022-12-14T22:34:01.688Z,20.12
2022-12-14T22:36:40.529Z,20.13
2022-12-14T22:39:18.804Z,20.06
2022-12-14T22:41:45.352Z,19.87
2022-12-14T22:44:12.455Z,19.88
2022-12-14T22:46:38.897Z,19.92
2022-12-14T22:49:05.220Z,19.94
2022-12-14T22:51:31.565Z,19.94
2022-12-14T22:53:57.882Z,19.97
2022-12-14T22:56:28.662Z,20.01
2022-12-14T22:59:12.494Z,20.01
2022-12-14T23:01:38.925Z,20.00
2022-12-14T23:04:05.556Z,19.99
2022-12-14T23:06:31.964Z,19.99
2022-12-14T23:09:16.893Z,19.99
2022-12-14T23:12:02.126Z,19.98
2022-12-14T23:14:47.112Z,19.98
2022-12-14T23:17:31.952Z,20.00
2022-12-14T23:20:17.124Z,20.00
2022-12-14T23:23:05.250Z,20.01
2022-12-14T23:25:51.694Z,20.01
2022-12-14T23:28:36.678Z,19.96
2022-12-14T23:31:21.710Z,19.94
2022-12-14T23:34:06.862Z,19.96
2022-12-14T23:36:51.597Z,19.96
2022-12-14T23:39:36.635Z,19.94
2022-12-14T23:42:21.413Z,19.92
2022-12-14T23:45:06.523Z,19.91
2022-12-14T23:47:51.428Z,19.91
2022-12-14T23:50:36.387Z,19.92
2022-12-14T23:53:27.691Z,19.93
2022-12-14T23:56:13.028Z,19.93
2022-12-14T23:58:58.084Z,19.93
